Time;durP1;ratioP1;P1;durP2;ratioP2;P2;SDS_P1;SDS_P2;PMS_P1;PMS_P2;Temp;Humidity;BMP_temperature;BMP_pressure;BME280_temperature;BME280_humidity;BME280_pressure;Samples;Min_cycle;Max_cycle;Signal;HPM_P1;HPM_P2
2022/01/22 03:08:48;;;;;;;;;;;;;;;;;;7389046;19;1306;-48
2022/01/22 04:14:03;;;;;;;;;;;;;;;;;;7386641;19;1337;-42
2022/01/22 06:03:40;;;;;;;;;;;;;;;;;;7425538;19;1306;-42
2022/01/22 06:06:08;;;;;;;;;;;;;;;;;;7426081;19;936;-45
2022/01/22 06:08:45;;;;;;;;;;;;;;;;;;7425357;19;1247;-42
2022/01/22 06:11:21;;;;;;;;;;;;;;;;;;7425797;19;1058;-45
2022/01/22 06:13:49;;;;;;;;;;;;;;;;;;7424644;19;1252;-46
2022/01/22 06:16:26;;;;;;;;;;;;;;;;;;7364145;19;1005282;-45
2022/01/22 06:19:12;;;;;;;;;;;;;;;;;;7426323;19;860;-45
2022/01/22 06:21:39;;;;;;;;;;;;;;;;;;7423194;19;1868;-43
2022/01/22 06:24:07;;;;;;;;;;;;;;;;;;7424031;19;938;-43
2022/01/22 06:26:35;;;;;;;;;;;;;;;;;;7423903;19;958;-46
2022/01/22 06:29:03;;;;;;;;;;;;;;;;;;7423173;19;1104;-43
2022/01/22 06:31:31;;;;;;;;;;;;;;;;;;7423013;19;1194;-48
2022/01/22 06:33:59;;;;;;;;;;;;;;;;;;7423450;19;1227;-45
2022/01/22 06:36:27;;;;;;;;;;;;;;;;;;7422946;19;1201;-47
2022/01/22 06:38:59;;;;;;;;;;;;;;;;;;7422461;19;1291;-49
2022/01/22 06:41:58;;;;;;;;;;;;;;;;;;7422088;19;1862;-43
2022/01/22 06:44:44;;;;;;;;;;;;;;;;;;7424286;19;871;-45
2022/01/22 06:47:35;;;;;;;;;;;;;;;;;;7423854;19;1131;-43
2022/01/22 06:50:08;;;;;;;;;;;;;;;;;;7423031;19;1357;-45
2022/01/22 06:52:58;;;;;;;;;;;;;;;;;;7424151;19;786;-42
2022/01/22 06:55:43;;;;;;;;;;;;;;;;;;7425518;19;1400;-43
2022/01/22 06:58:13;;;;;;;;;;;;;;;;;;7422629;19;1228;-41
2022/01/22 07:00:55;;;;;;;;;;;;;;;;;;7422746;19;1228;-46
2022/01/22 07:03:27;;;;;;;;;;;;;;;;;;7419627;19;1830;-45
2022/01/22 07:06:14;;;;;;;;;;;;;;;;;;7423302;19;1075;-45
2022/01/22 07:08:42;;;;;;;;;;;;;;;;;;7422460;19;1276;-43
2022/01/22 07:11:10;;;;;;;;;;;;;;;;;;7424523;19;1276;-45
2022/01/22 07:13:42;;;;;;;;;;;;;;;;;;7409854;19;1217;-44
2022/01/22 07:16:09;;;;;;;;;;;;;;;;;;7393951;19;1241;-42
2022/01/22 07:18:37;;;;;;;;;;;;;;;;;;7393010;19;1543;-47
2022/01/22 07:21:14;;;;;;;;;;;;;;;;;;7392257;19;1190;-42
2022/01/22 07:24:22;;;;;;;;;;;;;;;;;;7391533;19;1853;-45
2022/01/22 07:26:31;;;;;;;;;;;;;;;;;;7392593;19;1549;-42
2022/01/22 07:29:07;;;;;;;;;;;;;;;;;;7392763;19;1174;-44
2022/01/22 07:31:36;;;;;;;;;;;;;;;;;;7396406;19;1387;-51
2022/01/22 07:34:04;;;;;;;;;;;;;;;;;;7392273;19;1281;-43
2022/01/22 07:36:31;;;;;;;;;;;;;;;;;;7392892;19;1206;-46
2022/01/22 07:38:59;;;;;;;;;;;;;;;;;;7392321;19;1265;-43
2022/01/22 07:41:26;;;;;;;;;;;;;;;;;;7393433;19;946;-41
2022/01/22 07:44:32;;;;;;;;;;;;;;;;;;7390127;19;1217;-48
2022/01/22 07:47:00;;;;;;;;;;;;;;;;;;7390330;19;1179;-42
2022/01/22 07:49:29;;;;;;;;;;;;;;;;;;7391802;19;1050;-42
2022/01/22 07:51:59;;;;;;;;;;;;;;;;;;7391138;19;983;-42
2022/01/22 07:54:28;;;;;;;;;;;;;;;;;;7393105;19;942;-45
2022/01/22 07:56:57;;;;;;;;;;;;;;;;;;7391559;19;1833;-44
2022/01/22 07:59:25;;;;;;;;;;;;;;;;;;7391537;19;1951;-42
2022/01/22 08:01:52;;;;;;;;;;;;;;;;;;7390590;19;1884;-44
2022/01/22 08:04:24;;;;;;;;;;;;;;;;;;7392541;19;954;-41
2022/01/22 08:06:56;;;;;;;;;;;;;;;;;;7393116;19;1009;-43
2022/01/22 08:09:43;;;;;;;;;;;;;;;;;;7393103;19;935;-42
2022/01/22 08:12:37;;;;;;;;;;;;;;;;;;7397065;19;1079;-47
2022/01/22 08:15:08;;;;;;;;;;;;;;;;;;7390588;19;1211;-43
2022/01/22 08:17:35;;;;;;;;;;;;;;;;;;7394834;19;1189;-42
2022/01/22 08:20:03;;;;;;;;;;;;;;;;;;7396799;19;1190;-46
2022/01/22 08:22:49;;;;;;;;;;;;;;;;;;7391893;19;1865;-44
2022/01/22 08:25:38;;;;;;;;;;;;;;;;;;7390125;19;885;-41
2022/01/22 08:31:16;;;;;;;;;;;;;;;;;;7390588;19;1313;-46
2022/01/22 08:36:31;;;;;;;;;;;;;;;;;;7390688;19;1201;-44
2022/01/22 08:38:58;;;;;;;;;;;;;;;;;;7390827;19;1111;-47
2022/01/22 08:41:27;;;;;;;;;;;;;;;;;;7390322;19;1248;-42
2022/01/22 08:43:54;;;;;;;;;;;;;;;;;;7388203;19;1846;-49
2022/01/22 08:46:21;;;;;;;;;;;;;;;;;;7389971;19;1235;-42
2022/01/22 08:48:49;;;;;;;;;;;;;;;;;;7389925;19;1264;-46
2022/01/22 08:51:16;;;;;;;;;;;;;;;;;;7315226;19;1005078;-53
2022/01/22 08:53:46;;;;;;;;;;;;;;;;;;7390907;19;1194;-45
2022/01/22 08:56:13;;;;;;;;;;;;;;;;;;7389394;19;1170;-46
2022/01/22 08:58:42;;;;;;;;;;;;;;;;;;7389673;19;1262;-45
2022/01/22 09:01:31;;;;;;;;;;;;;;;;;;7391210;19;1092;-44
2022/01/22 09:04:07;;;;;;;;;;;;;;;;;;7387942;19;1845;-44
2022/01/22 09:06:52;;;;;;;;;;;;;;;;;;7391181;19;854;-46
2022/01/22 09:09:52;;;;;;;;;;;;;;;;;;7389038;19;1158;-46
2022/01/22 09:12:44;;;;;;;;;;;;;;;;;;7390282;19;1022;-45
2022/01/22 09:15:32;;;;;;;;;;;;;;;;;;7390306;19;1213;-41
2022/01/22 09:17:59;;;;;;;;;;;;;;;;;;7388346;19;1191;-46
2022/01/22 09:20:45;;;;;;;;;;;;;;;;;;7390322;19;914;-44
2022/01/22 09:23:15;;;;;;;;;;;;;;;;;;7387913;19;1861;-45
2022/01/22 09:25:42;;;;;;;;;;;;;;;;;;7388821;19;892;-46
2022/01/22 09:28:14;;;;;;;;;;;;;;;;;;7388596;19;1179;-44
2022/01/22 09:30:47;;;;;;;;;;;;;;;;;;7388581;19;1884;-48
2022/01/22 09:33:16;;;;;;;;;;;;;;;;;;7388310;19;1276;-49
2022/01/22 09:36:02;;;;;;;;;;;;;;;;;;7389497;19;1248;-43
2022/01/22 09:38:47;;;;;;;;;;;;;;;;;;7389079;19;951;-43
2022/01/22 09:41:40;;;;;;;;;;;;;;;;;;7388364;19;1123;-45
2022/01/22 09:44:46;;;;;;;;;;;;;;;;;;7389942;19;899;-46
2022/01/22 09:47:39;;;;;;;;;;;;;;;;;;7389960;19;978;-45
2022/01/22 09:50:22;;;;;;;;;;;;;;;;;;7389911;19;983;-50
2022/01/22 09:53:13;;;;;;;;;;;;;;;;;;7387438;19;1190;-42
2022/01/22 09:56:10;;;;;;;;;;;;;;;;;;7386087;19;1131;-46
2022/01/22 09:58:52;;;;;;;;;;;;;;;;;;7390080;19;950;-44
2022/01/22 10:01:33;;;;;;;;;;;;;;;;;;7387831;19;1114;-46
2022/01/22 10:04:12;;;;;;;;;;;;;;;;;;7386191;19;1854;-45
2022/01/22 10:06:53;;;;;;;;;;;;;;;;;;7389051;19;903;-46
2022/01/22 10:09:34;;;;;;;;;;;;;;;;;;7387204;19;1893;-45
2022/01/22 10:12:44;;;;;;;;;;;;;;;;;;7387064;19;1191;-46
2022/01/22 10:15:47;;;;;;;;;;;;;;;;;;7386586;19;1041;-42
2022/01/22 10:18:19;;;;;;;;;;;;;;;;;;7389550;19;974;-44
2022/01/22 10:20:47;;;;;;;;;;;;;;;;;;7387950;19;1002;-45
2022/01/22 10:23:24;;;;;;;;;;;;;;;;;;7388654;19;1846;-46
2022/01/22 10:26:00;;;;;;;;;;;;;;;;;;7389338;19;947;-42
2022/01/22 10:28:29;;;;;;;;;;;;;;;;;;7388927;19;859;-46
2022/01/22 10:30:59;;;;;;;;;;;;;;;;;;7386255;19;1119;-44
2022/01/22 10:34:05;;;;;;;;;;;;;;;;;;7384636;19;1126;-43
2022/01/22 10:36:58;;;;;;;;;;;;;;;;;;7388877;19;1134;-50
2022/01/22 10:39:44;;;;;;;;;;;;;;;;;;7388708;19;943;-42
2022/01/22 10:42:27;;;;;;;;;;;;;;;;;;7388424;19;901;-50
2022/01/22 10:45:19;;;;;;;;;;;;;;;;;;7387987;19;888;-46
2022/01/22 10:48:17;;;;;;;;;;;;;;;;;;7388590;19;934;-42
2022/01/22 10:51:13;;;;;;;;;;;;;;;;;;7395617;19;1285;-46
2022/01/22 10:53:45;;;;;;;;;;;;;;;;;;7395685;19;928;-43
2022/01/22 10:56:22;;;;;;;;;;;;;;;;;;7395142;19;1022;-43
2022/01/22 10:58:50;;;;;;;;;;;;;;;;;;7395408;19;951;-47
2022/01/22 11:01:17;;;;;;;;;;;;;;;;;;7395107;19;1381;-45
2022/01/22 11:03:44;;;;;;;;;;;;;;;;;;7392888;19;1861;-43
2022/01/22 11:06:26;;;;;;;;;;;;;;;;;;7394585;19;919;-46
2022/01/22 11:08:54;;;;;;;;;;;;;;;;;;7394899;19;941;-46
2022/01/22 11:11:24;;;;;;;;;;;;;;;;;;7395230;19;1205;-45
2022/01/22 11:13:51;;;;;;;;;;;;;;;;;;7394749;19;1049;-48
2022/01/22 11:16:19;;;;;;;;;;;;;;;;;;7394419;19;994;-42
2022/01/22 11:19:10;;;;;;;;;;;;;;;;;;7394659;19;877;-43
2022/01/22 11:21:41;;;;;;;;;;;;;;;;;;7394339;19;970;-47
2022/01/22 11:24:11;;;;;;;;;;;;;;;;;;7392405;19;1840;-46
2022/01/22 11:26:39;;;;;;;;;;;;;;;;;;7394417;19;986;-45
2022/01/22 11:29:06;;;;;;;;;;;;;;;;;;7395267;19;859;-45
2022/01/22 11:31:37;;;;;;;;;;;;;;;;;;7394136;19;1003;-49
2022/01/22 11:34:05;;;;;;;;;;;;;;;;;;7394525;19;917;-44
2022/01/22 11:36:37;;;;;;;;;;;;;;;;;;7394144;19;1041;-46
2022/01/22 11:39:06;;;;;;;;;;;;;;;;;;7393007;19;935;-45
2022/01/22 11:41:33;;;;;;;;;;;;;;;;;;7394098;19;1014;-50
2022/01/22 11:44:08;;;;;;;;;;;;;;;;;;7392328;19;1850;-46
2022/01/22 11:46:41;;;;;;;;;;;;;;;;;;7393819;19;1149;-45
2022/01/22 11:49:13;;;;;;;;;;;;;;;;;;7393953;19;887;-41
2022/01/22 11:51:43;;;;;;;;;;;;;;;;;;7393042;19;935;-45
2022/01/22 11:54:14;;;;;;;;;;;;;;;;;;7393830;19;935;-49
2022/01/22 11:56:43;;;;;;;;;;;;;;;;;;7393473;19;1038;-42
2022/01/22 11:59:18;;;;;;;;;;;;;;;;;;7391634;19;1187;-46
2022/01/22 12:01:53;;;;;;;;;;;;;;;;;;7366139;19;12749;-43
2022/01/22 12:04:24;;;;;;;;;;;;;;;;;;7391254;19;1846;-45
2022/01/22 12:07:01;;;;;;;;;;;;;;;;;;7393574;19;951;-44
2022/01/22 12:09:32;;;;;;;;;;;;;;;;;;7390766;19;932;-43
2022/01/22 12:15:05;;;;;;;;;;;;;;;;;;7392869;19;1077;-42
2022/01/22 12:18:01;;;;;;;;;;;;;;;;;;7390763;19;1200;-48
2022/01/22 12:23:12;;;;;;;;;;;;;;;;;;7392087;19;1857;-45
2022/01/22 12:25:39;;;;;;;;;;;;;;;;;;7392452;19;868;-49
2022/01/22 12:28:07;;;;;;;;;;;;;;;;;;7391973;19;910;-45
2022/01/22 12:30:34;;;;;;;;;;;;;;;;;;7396005;19;954;-41
2022/01/22 12:33:01;;;;;;;;;;;;;;;;;;7392734;19;910;-45
2022/01/22 12:35:34;;;;;;;;;;;;;;;;;;7391851;19;989;-47
2022/01/22 12:38:18;;;;;;;;;;;;;;;;;;7392733;19;1134;-45
2022/01/22 12:40:47;;;;;;;;;;;;;;;;;;7391893;19;926;-47
2022/01/22 12:43:25;;;;;;;;;;;;;;;;;;7391471;19;1863;-42
2022/01/22 12:45:55;;;;;;;;;;;;;;;;;;7391997;19;872;-50
2022/01/22 12:48:27;;;;;;;;;;;;;;;;;;7392362;19;910;-42
2022/01/22 12:50:59;;;;;;;;;;;;;;;;;;7391940;19;938;-43
2022/01/22 12:53:26;;;;;;;;;;;;;;;;;;7389096;19;947;-49
2022/01/22 12:58:25;;;;;;;;;;;;;;;;;;7389411;19;994;-42
2022/01/22 13:01:06;;;;;;;;;;;;;;;;;;7389693;19;943;-43
2022/01/22 13:03:35;;;;;;;;;;;;;;;;;;7388467;19;1858;-42
2022/01/22 13:06:03;;;;;;;;;;;;;;;;;;7388828;19;998;-44
2022/01/22 13:08:37;;;;;;;;;;;;;;;;;;7391355;19;822;-42
2022/01/22 13:11:09;;;;;;;;;;;;;;;;;;7389801;19;1247;-43
2022/01/22 13:13:38;;;;;;;;;;;;;;;;;;7391056;19;1166;-44
2022/01/22 13:16:07;;;;;;;;;;;;;;;;;;7395141;19;1241;-43
2022/01/22 13:18:43;;;;;;;;;;;;;;;;;;7390865;19;1062;-41
2022/01/22 13:21:12;;;;;;;;;;;;;;;;;;7390187;19;994;-43
2022/01/22 13:23:40;;;;;;;;;;;;;;;;;;7390159;19;1840;-45
2022/01/22 13:26:08;;;;;;;;;;;;;;;;;;7390863;19;925;-41
2022/01/22 13:28:37;;;;;;;;;;;;;;;;;;7390783;19;832;-45
2022/01/22 13:31:12;;;;;;;;;;;;;;;;;;7388108;19;863;-45
2022/01/22 13:36:35;;;;;;;;;;;;;;;;;;7389427;19;860;-40
2022/01/22 13:50:48;;;;;;;;;;;;;;;;;;7387819;19;1418;-41
2022/01/22 13:53:15;;;;;;;;;;;;;;;;;;7390026;19;868;-42
2022/01/22 13:55:42;;;;;;;;;;;;;;;;;;7389785;19;1037;-47
2022/01/22 13:58:18;;;;;;;;;;;;;;;;;;7389515;19;884;-42
2022/01/22 14:00:45;;;;;;;;;;;;;;;;;;7389258;19;936;-41
2022/01/22 14:03:40;;;;;;;;;;;;;;;;;;7387256;19;1850;-44
2022/01/22 14:06:09;;;;;;;;;;;;;;;;;;7389390;19;874;-42
2022/01/22 14:08:36;;;;;;;;;;;;;;;;;;7389106;19;960;-45
2022/01/22 14:11:12;;;;;;;;;;;;;;;;;;7390135;19;1098;-42
2022/01/22 14:13:41;;;;;;;;;;;;;;;;;;7389270;19;1042;-52
2022/01/22 14:16:18;;;;;;;;;;;;;;;;;;7386996;19;927;-44
2022/01/22 14:18:46;;;;;;;;;;;;;;;;;;7389734;19;950;-46
2022/01/22 14:21:20;;;;;;;;;;;;;;;;;;7388600;19;1283;-41
2022/01/22 14:23:50;;;;;;;;;;;;;;;;;;7390144;19;1846;-42
2022/01/22 14:26:31;;;;;;;;;;;;;;;;;;7396005;19;906;-45
2022/01/22 14:29:19;;;;;;;;;;;;;;;;;;7396434;19;926;-41
2022/01/22 14:31:49;;;;;;;;;;;;;;;;;;7396698;19;859;-45
2022/01/22 14:34:36;;;;;;;;;;;;;;;;;;7396160;19;942;-41
2022/01/22 14:37:05;;;;;;;;;;;;;;;;;;7396756;19;942;-42
2022/01/22 14:45:29;;;;;;;;;;;;;;;;;;7393905;19;1846;-42
2022/01/22 14:47:58;;;;;;;;;;;;;;;;;;7396294;19;922;-42
2022/01/22 14:50:28;;;;;;;;;;;;;;;;;;7395434;19;915;-43
2022/01/22 14:52:57;;;;;;;;;;;;;;;;;;7395318;19;946;-46
2022/01/22 14:55:24;;;;;;;;;;;;;;;;;;7394886;19;1219;-43
2022/01/22 14:57:53;;;;;;;;;;;;;;;;;;7395690;19;978;-43
2022/01/22 15:00:20;;;;;;;;;;;;;;;;;;7395392;19;880;-45
2022/01/22 15:02:48;;;;;;;;;;;;;;;;;;7393167;19;1075;-43
2022/01/22 15:05:15;;;;;;;;;;;;;;;;;;7393036;19;1818;-43
2022/01/22 15:07:44;;;;;;;;;;;;;;;;;;7395562;19;906;-47
2022/01/22 15:10:14;;;;;;;;;;;;;;;;;;7394955;19;942;-48
2022/01/22 15:12:41;;;;;;;;;;;;;;;;;;7395292;19;865;-47
2022/01/22 15:15:34;;;;;;;;;;;;;;;;;;7395319;19;951;-45
2022/01/22 15:18:09;;;;;;;;;;;;;;;;;;7394481;19;955;-42
2022/01/22 15:20:37;;;;;;;;;;;;;;;;;;7394509;19;859;-49
2022/01/22 15:23:05;;;;;;;;;;;;;;;;;;7394977;19;871;-47
2022/01/22 15:25:32;;;;;;;;;;;;;;;;;;7391841;19;1837;-42
2022/01/22 15:27:59;;;;;;;;;;;;;;;;;;7394033;19;963;-43
2022/01/22 15:30:33;;;;;;;;;;;;;;;;;;7394089;19;867;-44
2022/01/22 15:33:05;;;;;;;;;;;;;;;;;;7394737;19;1392;-43
2022/01/22 15:35:33;;;;;;;;;;;;;;;;;;7393615;19;1049;-44
2022/01/22 15:38:02;;;;;;;;;;;;;;;;;;7394223;19;947;-43
2022/01/22 15:40:31;;;;;;;;;;;;;;;;;;7394519;19;919;-42
2022/01/22 15:42:59;;;;;;;;;;;;;;;;;;7394222;19;994;-45
2022/01/22 15:45:29;;;;;;;;;;;;;;;;;;7392353;19;1861;-47
2022/01/22 15:47:56;;;;;;;;;;;;;;;;;;7394259;19;937;-43
2022/01/22 15:50:25;;;;;;;;;;;;;;;;;;7392148;19;1308;-44
2022/01/22 15:53:13;;;;;;;;;;;;;;;;;;7393657;19;967;-41
2022/01/22 15:55:41;;;;;;;;;;;;;;;;;;7393472;19;923;-44
2022/01/22 15:58:09;;;;;;;;;;;;;;;;;;7393167;19;955;-45
2022/01/22 16:00:39;;;;;;;;;;;;;;;;;;7393378;19;1030;-47
2022/01/22 16:03:09;;;;;;;;;;;;;;;;;;7392758;19;1190;-42
2022/01/22 16:05:42;;;;;;;;;;;;;;;;;;7391228;19;1856;-42
2022/01/22 16:08:10;;;;;;;;;;;;;;;;;;7393798;19;897;-47
2022/01/22 16:10:59;;;;;;;;;;;;;;;;;;7394291;19;1461;-46
2022/01/22 16:13:27;;;;;;;;;;;;;;;;;;7399165;19;1262;-45
2022/01/22 16:15:55;;;;;;;;;;;;;;;;;;7393168;19;986;-43
2022/01/22 16:18:23;;;;;;;;;;;;;;;;;;7392823;19;923;-43
2022/01/22 16:20:50;;;;;;;;;;;;;;;;;;7392584;19;1004;-42
2022/01/22 16:23:18;;;;;;;;;;;;;;;;;;7392523;19;852;-46
2022/01/22 16:25:45;;;;;;;;;;;;;;;;;;7391376;19;1845;-45
2022/01/22 16:28:15;;;;;;;;;;;;;;;;;;7392786;19;954;-44
2022/01/22 16:30:47;;;;;;;;;;;;;;;;;;7392929;19;856;-44
2022/01/22 16:33:15;;;;;;;;;;;;;;;;;;7392291;19;924;-46
2022/01/22 16:35:42;;;;;;;;;;;;;;;;;;7392446;19;1002;-41
2022/01/22 16:38:10;;;;;;;;;;;;;;;;;;7391686;19;1019;-42
2022/01/22 16:40:37;;;;;;;;;;;;;;;;;;7391982;19;1018;-45
2022/01/22 16:43:07;;;;;;;;;;;;;;;;;;7390385;19;1116;-43
2022/01/22 16:51:20;;;;;;;;;;;;;;;;;;7392423;19;922;-42
2022/01/22 16:56:35;;;;;;;;;;;;;;;;;;7391963;19;950;-42
2022/01/22 16:59:04;;;;;;;;;;;;;;;;;;7391607;19;1081;-43
2022/01/22 17:01:42;;;;;;;;;;;;;;;;;;7391420;19;1116;-42
2022/01/22 17:04:17;;;;;;;;;;;;;;;;;;7390738;19;1883;-42
2022/01/22 17:06:46;;;;;;;;;;;;;;;;;;7391383;19;920;-42
2022/01/22 17:14:40;;;;;;;;;;;;;;;;;;7390564;19;949;-44
2022/01/22 17:17:07;;;;;;;;;;;;;;;;;;7390573;19;868;-45
2022/01/22 17:19:35;;;;;;;;;;;;;;;;;;7390475;19;962;-51
2022/01/22 17:22:02;;;;;;;;;;;;;;;;;;7390267;19;1358;-42
2022/01/22 17:24:30;;;;;;;;;;;;;;;;;;7390575;19;1842;-43
2022/01/22 17:26:58;;;;;;;;;;;;;;;;;;7390753;19;871;-43
2022/01/22 17:29:25;;;;;;;;;;;;;;;;;;7390708;19;930;-46
2022/01/22 17:31:56;;;;;;;;;;;;;;;;;;7390491;19;966;-45
2022/01/22 17:34:23;;;;;;;;;;;;;;;;;;7390194;19;887;-44
2022/01/22 17:36:51;;;;;;;;;;;;;;;;;;7390036;19;986;-42
2022/01/22 17:39:21;;;;;;;;;;;;;;;;;;7390494;19;951;-43
2022/01/22 17:41:51;;;;;;;;;;;;;;;;;;7389668;19;947;-43
2022/01/22 17:44:21;;;;;;;;;;;;;;;;;;7389865;19;1853;-46
2022/01/22 17:46:48;;;;;;;;;;;;;;;;;;7389714;19;998;-44
2022/01/22 17:49:16;;;;;;;;;;;;;;;;;;7389757;19;991;-43
2022/01/22 17:51:43;;;;;;;;;;;;;;;;;;7390034;19;1074;-45
2022/01/22 17:54:11;;;;;;;;;;;;;;;;;;7389408;19;890;-41
2022/01/22 17:56:39;;;;;;;;;;;;;;;;;;7389935;19;864;-42
2022/01/22 17:59:06;;;;;;;;;;;;;;;;;;7389229;19;942;-44
2022/01/22 18:01:33;;;;;;;;;;;;;;;;;;7388621;19;1080;-45
2022/01/22 18:04:02;;;;;;;;;;;;;;;;;;7387909;19;928;-42
2022/01/22 18:06:34;;;;;;;;;;;;;;;;;;7387679;19;1859;-42
2022/01/22 18:09:05;;;;;;;;;;;;;;;;;;7389445;19;1197;-47
2022/01/22 18:11:39;;;;;;;;;;;;;;;;;;7391537;19;1114;-43
2022/01/22 18:14:07;;;;;;;;;;;;;;;;;;7389342;19;897;-46
2022/01/22 18:16:35;;;;;;;;;;;;;;;;;;7389303;19;902;-45
2022/01/22 18:19:03;;;;;;;;;;;;;;;;;;7389178;19;951;-47
2022/01/22 18:21:31;;;;;;;;;;;;;;;;;;7389605;19;911;-42
2022/01/22 18:23:59;;;;;;;;;;;;;;;;;;7389570;19;926;-43
2022/01/22 18:26:27;;;;;;;;;;;;;;;;;;7387849;19;1854;-42
2022/01/22 18:28:56;;;;;;;;;;;;;;;;;;7389095;19;958;-45
2022/01/22 18:31:24;;;;;;;;;;;;;;;;;;7388375;19;1016;-49
2022/01/22 18:33:52;;;;;;;;;;;;;;;;;;7388521;19;892;-47
2022/01/22 18:36:19;;;;;;;;;;;;;;;;;;7388153;19;942;-42
2022/01/22 18:38:46;;;;;;;;;;;;;;;;;;7389137;19;855;-45
2022/01/22 18:41:14;;;;;;;;;;;;;;;;;;7387073;19;2189;-44
2022/01/22 18:43:43;;;;;;;;;;;;;;;;;;7388250;19;2117;-42
2022/01/22 18:46:12;;;;;;;;;;;;;;;;;;7387150;19;2235;-45
2022/01/22 18:48:59;;;;;;;;;;;;;;;;;;7388678;19;2300;-44
2022/01/22 18:51:26;;;;;;;;;;;;;;;;;;7388823;19;2399;-46
2022/01/22 18:53:55;;;;;;;;;;;;;;;;;;7388480;19;2155;-50
2022/01/22 18:56:22;;;;;;;;;;;;;;;;;;7387678;19;2142;-42
2022/01/22 18:58:49;;;;;;;;;;;;;;;;;;7387901;19;2346;-47
2022/01/22 19:01:18;;;;;;;;;;;;;;;;;;7387797;19;2229;-43
2022/01/22 19:03:45;;;;;;;;;;;;;;;;;;7385532;19;2148;-46
2022/01/22 19:06:13;;;;;;;;;;;;;;;;;;7386284;19;2511;-45
2022/01/22 19:08:41;;;;;;;;;;;;;;;;;;7387914;19;2234;-43
2022/01/22 19:11:08;;;;;;;;;;;;;;;;;;7395284;19;2426;-42
2022/01/22 19:13:35;;;;;;;;;;;;;;;;;;7393409;19;1989;-45
2022/01/22 19:16:03;;;;;;;;;;;;;;;;;;7394726;19;2201;-45
2022/01/22 19:18:30;;;;;;;;;;;;;;;;;;7395653;19;1901;-49
2022/01/22 19:21:02;;;;;;;;;;;;;;;;;;7394914;19;2408;-45
2022/01/22 19:23:54;;;;;;;;;;;;;;;;;;7395330;19;2215;-47
2022/01/22 19:29:12;;;;;;;;;;;;;;;;;;7395960;19;2303;-47
2022/01/22 19:31:39;;;;;;;;;;;;;;;;;;7395027;19;2130;-42
2022/01/22 19:34:06;;;;;;;;;;;;;;;;;;7394059;19;2289;-45
2022/01/22 19:36:36;;;;;;;;;;;;;;;;;;7393760;19;2287;-42
2022/01/22 19:39:05;;;;;;;;;;;;;;;;;;7393168;19;2216;-47
2022/01/22 19:41:34;;;;;;;;;;;;;;;;;;7394335;19;1932;-42
2022/01/22 19:44:07;;;;;;;;;;;;;;;;;;7394170;19;1667;-44
2022/01/22 19:46:35;;;;;;;;;;;;;;;;;;7391944;19;2424;-42
2022/01/22 19:49:05;;;;;;;;;;;;;;;;;;7393204;19;2169;-42
2022/01/22 19:51:32;;;;;;;;;;;;;;;;;;7394272;19;2272;-42
2022/01/22 19:54:04;;;;;;;;;;;;;;;;;;7393782;19;1867;-50
2022/01/22 19:56:32;;;;;;;;;;;;;;;;;;7393317;19;2283;-43
2022/01/22 19:58:59;;;;;;;;;;;;;;;;;;7393986;19;2147;-43
2022/01/22 20:01:28;;;;;;;;;;;;;;;;;;7393419;19;2277;-44
2022/01/22 20:04:02;;;;;;;;;;;;;;;;;;7393791;19;2281;-44
2022/01/22 20:06:33;;;;;;;;;;;;;;;;;;7392138;19;1845;-45
2022/01/22 20:09:02;;;;;;;;;;;;;;;;;;7393756;19;2092;-46
2022/01/22 20:11:30;;;;;;;;;;;;;;;;;;7395869;19;2328;-46
2022/01/22 20:13:58;;;;;;;;;;;;;;;;;;7394221;19;2308;-45
2022/01/22 20:16:28;;;;;;;;;;;;;;;;;;7393643;19;1987;-44
2022/01/22 20:18:55;;;;;;;;;;;;;;;;;;7393097;19;2086;-43
2022/01/22 20:21:30;;;;;;;;;;;;;;;;;;7391657;19;2813;-42
2022/01/22 20:24:06;;;;;;;;;;;;;;;;;;7392360;19;2072;-45
2022/01/22 20:26:36;;;;;;;;;;;;;;;;;;7389649;19;2234;-43
2022/01/22 20:29:05;;;;;;;;;;;;;;;;;;7392168;19;2268;-44
2022/01/22 20:31:32;;;;;;;;;;;;;;;;;;7392087;19;2225;-45
2022/01/22 20:34:00;;;;;;;;;;;;;;;;;;7392841;19;2092;-43
2022/01/22 20:36:30;;;;;;;;;;;;;;;;;;7392287;19;2270;-48
2022/01/22 20:38:59;;;;;;;;;;;;;;;;;;7392601;19;2352;-49
2022/01/22 20:41:28;;;;;;;;;;;;;;;;;;7392126;19;2216;-43
2022/01/22 20:44:16;;;;;;;;;;;;;;;;;;7392229;19;2279;-43
2022/01/22 20:46:45;;;;;;;;;;;;;;;;;;7390048;19;2069;-45
2022/01/22 20:49:16;;;;;;;;;;;;;;;;;;7391248;19;1983;-45
2022/01/22 20:51:44;;;;;;;;;;;;;;;;;;7392513;19;2379;-43
2022/01/22 20:54:13;;;;;;;;;;;;;;;;;;7391605;19;2311;-44
2022/01/22 20:56:42;;;;;;;;;;;;;;;;;;7391552;19;2277;-43
2022/01/22 20:59:09;;;;;;;;;;;;;;;;;;7391754;19;2237;-43
2022/01/22 21:01:41;;;;;;;;;;;;;;;;;;7390961;19;2200;-43
2022/01/22 21:04:22;;;;;;;;;;;;;;;;;;7390732;19;2397;-45
2022/01/22 21:06:52;;;;;;;;;;;;;;;;;;7389312;19;2304;-42
2022/01/22 21:09:23;;;;;;;;;;;;;;;;;;7391045;19;2201;-44
2022/01/22 21:11:51;;;;;;;;;;;;;;;;;;7393913;19;2159;-45
2022/01/22 21:14:19;;;;;;;;;;;;;;;;;;7390512;19;2209;-46
2022/01/22 21:16:49;;;;;;;;;;;;;;;;;;7390438;19;2202;-43
2022/01/22 21:19:22;;;;;;;;;;;;;;;;;;7391292;19;1916;-43
2022/01/22 21:21:51;;;;;;;;;;;;;;;;;;7390475;19;2300;-46
2022/01/22 21:24:21;;;;;;;;;;;;;;;;;;7390149;19;2286;-48
2022/01/22 21:26:54;;;;;;;;;;;;;;;;;;7389761;19;2279;-44
2022/01/22 21:29:23;;;;;;;;;;;;;;;;;;7390548;19;2279;-45
2022/01/22 21:31:50;;;;;;;;;;;;;;;;;;7389740;19;2167;-42
2022/01/22 21:34:19;;;;;;;;;;;;;;;;;;7389859;19;1932;-41
2022/01/22 21:37:08;;;;;;;;;;;;;;;;;;7390437;19;2041;-51
2022/01/22 21:40:03;;;;;;;;;;;;;;;;;;7390146;19;2271;-43
2022/01/22 21:42:36;;;;;;;;;;;;;;;;;;7388394;19;2106;-45
2022/01/22 21:45:05;;;;;;;;;;;;;;;;;;7390226;19;2305;-43
2022/01/22 21:47:33;;;;;;;;;;;;;;;;;;7387780;19;2225;-43
2022/01/22 21:50:02;;;;;;;;;;;;;;;;;;7390611;19;2138;-41
2022/01/22 21:52:30;;;;;;;;;;;;;;;;;;7390092;19;1999;-46
2022/01/22 21:54:58;;;;;;;;;;;;;;;;;;7389790;19;2219;-44
2022/01/22 21:57:26;;;;;;;;;;;;;;;;;;7389546;19;2407;-44
2022/01/22 21:59:53;;;;;;;;;;;;;;;;;;7389619;19;2272;-46
2022/01/22 22:02:23;;;;;;;;;;;;;;;;;;7388506;19;2282;-45
2022/01/22 22:04:52;;;;;;;;;;;;;;;;;;7389496;19;2324;-43
2022/01/22 22:07:21;;;;;;;;;;;;;;;;;;7387526;19;2005;-43
2022/01/22 22:09:49;;;;;;;;;;;;;;;;;;7389676;19;2007;-43
2022/01/22 22:12:16;;;;;;;;;;;;;;;;;;7392958;19;1633;-51
2022/01/22 22:14:44;;;;;;;;;;;;;;;;;;7389387;19;1593;-47
2022/01/22 22:17:12;;;;;;;;;;;;;;;;;;7389526;19;1535;-46
2022/01/22 22:19:40;;;;;;;;;;;;;;;;;;7389676;19;2083;-46
2022/01/22 22:22:07;;;;;;;;;;;;;;;;;;7388517;19;2050;-43
2022/01/22 22:24:36;;;;;;;;;;;;;;;;;;7388769;19;2361;-44
2022/01/22 22:27:04;;;;;;;;;;;;;;;;;;7387394;19;2366;-44
2022/01/22 22:29:32;;;;;;;;;;;;;;;;;;7388864;19;2302;-44
2022/01/22 22:32:00;;;;;;;;;;;;;;;;;;7389403;19;2317;-42
2022/01/22 22:34:28;;;;;;;;;;;;;;;;;;7388772;19;2290;-47
2022/01/22 22:36:55;;;;;;;;;;;;;;;;;;7388943;19;2245;-43
2022/01/22 22:39:23;;;;;;;;;;;;;;;;;;7388365;19;1577;-44
2022/01/22 22:41:50;;;;;;;;;;;;;;;;;;7387889;19;2222;-43
2022/01/22 22:44:17;;;;;;;;;;;;;;;;;;7388771;19;2294;-45
2022/01/22 22:46:45;;;;;;;;;;;;;;;;;;7394207;19;2158;-43
2022/01/22 22:49:13;;;;;;;;;;;;;;;;;;7395377;19;2403;-42
2022/01/22 22:51:41;;;;;;;;;;;;;;;;;;7394971;19;2277;-47
2022/01/22 22:54:08;;;;;;;;;;;;;;;;;;7399297;19;2202;-44
2022/01/22 22:56:36;;;;;;;;;;;;;;;;;;7395827;19;2340;-44
2022/01/22 22:59:03;;;;;;;;;;;;;;;;;;7395618;19;2308;-46
2022/01/22 23:01:30;;;;;;;;;;;;;;;;;;7396055;19;2327;-50
2022/01/22 23:03:59;;;;;;;;;;;;;;;;;;7396700;19;2244;-50
2022/01/22 23:06:27;;;;;;;;;;;;;;;;;;7393884;19;1942;-47
2022/01/22 23:08:54;;;;;;;;;;;;;;;;;;7394887;19;2198;-51
2022/01/22 23:11:21;;;;;;;;;;;;;;;;;;7397605;19;2290;-50
2022/01/22 23:14:00;;;;;;;;;;;;;;;;;;7395437;19;2391;-48
2022/01/22 23:16:49;;;;;;;;;;;;;;;;;;7395271;19;1882;-50
2022/01/22 23:22:09;;;;;;;;;;;;;;;;;;7395411;19;2382;-46
2022/01/22 23:27:22;;;;;;;;;;;;;;;;;;7393270;19;1988;-49
2022/01/22 23:29:50;;;;;;;;;;;;;;;;;;7394458;19;2088;-44
2022/01/22 23:32:38;;;;;;;;;;;;;;;;;;7394743;19;2320;-49
2022/01/22 23:35:19;;;;;;;;;;;;;;;;;;7394710;19;2226;-51
2022/01/22 23:54:23;;;;;;;;;;;;;;;;;;7392710;19;2357;-46
2022/01/22 23:57:32;;;;;;;;;;;;;;;;;;7392612;19;2238;-48
